Weather data: current Mittwoch, 29.03.2017 17:30
Date Time Temperature Humidity Barometer Rain Wind Direction Direction Dew point Wind chill Wind gust
29.03.2017 17:30 20,6 C 30 % 1018,6 hPa 0,0 l/m 20,4 km/h (4 Bft) E-NE 65 2,4 C 16,9 C 38,6 km/h (5 Bft)
29.03.2017 17:25 20,5 C 31 % 1018,6 hPa 0,0 l/m 21,6 km/h (4 Bft) E 87 2,8 C 16,6 C 37,0 km/h (5 Bft)
29.03.2017 17:20 20,0 C 39 % 1018,5 hPa 0,0 l/m 16,1 km/h (3 Bft) N-NE 25 5,6 C 17,0 C 24,1 km/h (4 Bft)
29.03.2017 17:15 20,6 C 32 % 1018,6 hPa 0,0 l/m 15,9 km/h (3 Bft) E-NE 70 3,3 C 17,8 C 25,7 km/h (4 Bft)
29.03.2017 17:10 20,5 C 29 % 1018,7 hPa 0,0 l/m 24,5 km/h (4 Bft) E 98 1,9 C 16,1 C 40,2 km/h (6 Bft)
29.03.2017 17:05 20,4 C 29 % 1018,6 hPa 0,0 l/m 26,5 km/h (4 Bft) E-NE 67 1,8 C 15,7 C 41,8 km/h (6 Bft)
29.03.2017 17:00 20,5 C 28 % 1018,6 hPa 0,0 l/m 27,7 km/h (4 Bft) E-NE 58 1,4 C 15,7 C 46,7 km/h (6 Bft)
29.03.2017 16:55 20,6 C 32 % 1018,7 hPa 0,0 l/m 20,9 km/h (4 Bft) N-NE 22 3,3 C 16,8 C 33,8 km/h (5 Bft)
29.03.2017 16:50 20,4 C 32 % 1018,6 hPa 0,0 l/m 20,1 km/h (4 Bft) E-NE 61 3,2 C 16,7 C 33,8 km/h (5 Bft)
29.03.2017 16:45 20,3 C 33 % 1018,8 hPa 0,0 l/m 21,4 km/h (4 Bft) N 354 3,5 C 16,3 C 35,4 km/h (5 Bft)
29.03.2017 16:40 20,2 C 35 % 1018,8 hPa 0,0 l/m 21,5 km/h (4 Bft) N-NE 24 4,2 C 16,2 C 33,8 km/h (5 Bft)
29.03.2017 16:35 20,1 C 35 % 1018,8 hPa 0,0 l/m 22,7 km/h (4 Bft) N-NE 22 4,2 C 15,9 C 43,5 km/h (6 Bft)
29.03.2017 16:30 19,9 C 38 % 1019,0 hPa 0,0 l/m 23,2 km/h (4 Bft) E-NE 67 5,2 C 15,5 C 38,6 km/h (5 Bft)
29.03.2017 16:25 19,8 C 38 % 1018,8 hPa 0,0 l/m 27,2 km/h (4 Bft) NE 56 5,1 C 14,8 C 46,7 km/h (6 Bft)
29.03.2017 16:20 19,7 C 39 % 1018,8 hPa 0,0 l/m 25,2 km/h (4 Bft) E-NE 60 5,4 C 14,9 C 45,1 km/h (6 Bft)
29.03.2017 16:15 19,6 C 40 % 1019,2 hPa 0,0 l/m 24,5 km/h (4 Bft) N-NE 25 5,6 C 14,9 C 43,5 km/h (6 Bft)
29.03.2017 16:10 19,4 C 40 % 1019,2 hPa 0,0 l/m 28,3 km/h (4 Bft) N-NE 23 5,5 C 14,1 C 41,8 km/h (6 Bft)
29.03.2017 16:05 19,4 C 41 % 1019,1 hPa 0,0 l/m 27,0 km/h (4 Bft) NE 45 5,8 C 14,3 C 43,5 km/h (6 Bft)
29.03.2017 16:00 19,5 C 41 % 1019,2 hPa 0,0 l/m 26,4 km/h (4 Bft) NE 40 5,9 C 14,5 C 43,5 km/h (6 Bft)
29.03.2017 15:55 19,4 C 40 % 1019,2 hPa 0,0 l/m 28,0 km/h (4 Bft) NE 55 5,5 C 14,1 C 43,5 km/h (6 Bft)
29.03.2017 15:50 19,3 C 42 % 1019,2 hPa 0,0 l/m 27,4 km/h (4 Bft) N-NE 30 6,1 C 14,1 C 45,1 km/h (6 Bft)
29.03.2017 15:45 19,3 C 41 % 1019,3 hPa 0,0 l/m 23,7 km/h (4 Bft) E-NE 67 5,7 C 14,6 C 40,2 km/h (6 Bft)
29.03.2017 15:40 19,2 C 41 % 1019,4 hPa 0,0 l/m 27,0 km/h (4 Bft) NE 34 5,6 C 14,0 C 46,7 km/h (6 Bft)
29.03.2017 15:35 19,1 C 41 % 1019,4 hPa 0,0 l/m 25,2 km/h (4 Bft) NE 37 5,5 C 14,1 C 41,8 km/h (6 Bft)
29.03.2017 15:30 19,0 C 40 % 1019,5 hPa 0,0 l/m 26,5 km/h (4 Bft) N-NE 32 5,1 C 13,8 C 41,8 km/h (6 Bft)
29.03.2017 15:25 19,1 C 40 % 1019,4 hPa 0,0 l/m 25,3 km/h (4 Bft) NE 53 5,2 C 14,1 C 45,1 km/h (6 Bft)
29.03.2017 15:20 18,9 C 40 % 1019,4 hPa 0,0 l/m 31,0 km/h (5 Bft) N-NE 25 5,0 C 13,0 C 43,5 km/h (6 Bft)
29.03.2017 15:15 19,0 C 39 % 1019,6 hPa 0,0 l/m 27,2 km/h (4 Bft) E-NE 60 4,7 C 13,7 C 45,1 km/h (6 Bft)
29.03.2017 15:10 18,9 C 40 % 1019,5 hPa 0,0 l/m 27,3 km/h (4 Bft) E-NE 62 5,0 C 13,5 C 45,1 km/h (6 Bft)
29.03.2017 15:05 18,8 C 38 % 1019,6 hPa 0,0 l/m 26,9 km/h (4 Bft) NE 49 4,2 C 13,5 C 45,1 km/h (6 Bft)
29.03.2017 15:00 18,7 C 38 % 1019,6 hPa 0,0 l/m 28,6 km/h (4 Bft) NE 53 4,1 C 13,1 C 46,7 km/h (6 Bft)
29.03.2017 14:55 18,6 C 39 % 1019,8 hPa 0,0 l/m 27,9 km/h (4 Bft) NE 36 4,4 C 13,0 C 45,1 km/h (6 Bft)
29.03.2017 14:50 18,4 C 38 % 1019,9 hPa 0,0 l/m 30,2 km/h (5 Bft) N-NE 33 3,8 C 12,4 C 49,9 km/h (6 Bft)
29.03.2017 14:45 18,4 C 38 % 1019,9 hPa 0,0 l/m 34,1 km/h (5 Bft) NE 49 3,8 C 12,0 C 53,1 km/h (7 Bft)
29.03.2017 14:40 18,4 C 37 % 1020,1 hPa 0,0 l/m 28,2 km/h (4 Bft) E 95 3,5 C 12,7 C 49,9 km/h (6 Bft)
29.03.2017 14:35 18,3 C 38 % 1019,9 hPa 0,0 l/m 33,6 km/h (5 Bft) E-NE 61 3,7 C 11,9 C 48,3 km/h (6 Bft)
29.03.2017 14:30 18,2 C 39 % 1020,1 hPa 0,0 l/m 31,9 km/h (5 Bft) NE 46 4,0 C 11,9 C 46,7 km/h (6 Bft)
29.03.2017 14:25 18,2 C 39 % 1020,3 hPa 0,0 l/m 26,0 km/h (4 Bft) N 8 4,0 C 12,8 C 45,1 km/h (6 Bft)
29.03.2017 14:20 18,3 C 39 % 1020,3 hPa 0,0 l/m 29,5 km/h (5 Bft) N-NE 27 4,1 C 12,4 C 45,1 km/h (6 Bft)
29.03.2017 14:15 18,2 C 40 % 1020,3 hPa 0,0 l/m 30,1 km/h (5 Bft) NE 52 4,4 C 12,2 C 48,3 km/h (6 Bft)
29.03.2017 14:10 18,2 C 40 % 1020,4 hPa 0,0 l/m 26,7 km/h (4 Bft) NE 34 4,4 C 12,7 C 46,7 km/h (6 Bft)
29.03.2017 14:05 18,2 C 38 % 1020,4 hPa 0,0 l/m 24,6 km/h (4 Bft) NE 53 3,7 C 13,0 C 40,2 km/h (6 Bft)
29.03.2017 14:00 18,0 C 40 % 1020,5 hPa 0,0 l/m 28,2 km/h (4 Bft) NE 46 4,2 C 12,2 C 46,7 km/h (6 Bft)
29.03.2017 13:55 17,9 C 38 % 1020,5 hPa 0,0 l/m 30,8 km/h (5 Bft) NE 53 3,4 C 11,7 C 46,7 km/h (6 Bft)
29.03.2017 13:50 17,8 C 39 % 1020,4 hPa 0,0 l/m 31,2 km/h (5 Bft) NE 35 3,7 C 11,5 C 48,3 km/h (6 Bft)
29.03.2017 13:45 17,8 C 38 % 1020,4 hPa 0,0 l/m 29,7 km/h (5 Bft) N-NE 19 3,3 C 11,7 C 49,9 km/h (6 Bft)
29.03.2017 13:40 17,9 C 38 % 1020,5 hPa 0,0 l/m 29,8 km/h (5 Bft) NE 55 3,4 C 11,8 C 46,7 km/h (6 Bft)
29.03.2017 13:35 18,0 C 38 % 1020,6 hPa 0,0 l/m 27,7 km/h (4 Bft) E-NE 60 3,5 C 12,2 C 45,1 km/h (6 Bft)
29.03.2017 13:30 17,7 C 40 % 1020,6 hPa 0,0 l/m 29,9 km/h (5 Bft) N 6 3,9 C 11,5 C 54,7 km/h (7 Bft)
29.03.2017 13:25 17,5 C 37 % 1020,8 hPa 0,0 l/m 30,3 km/h (5 Bft) NE 39 2,7 C 11,2 C 41,8 km/h (6 Bft)
29.03.2017 13:20 17,5 C 39 % 1020,9 hPa 0,0 l/m 30,5 km/h (5 Bft) N-NE 15 3,4 C 11,1 C 51,5 km/h (7 Bft)
29.03.2017 13:15 17,3 C 41 % 1020,8 hPa 0,0 l/m 32,9 km/h (5 Bft) NE 39 3,9 C 10,5 C 49,9 km/h (6 Bft)
29.03.2017 13:10 17,4 C 41 % 1020,9 hPa 0,0 l/m 27,3 km/h (4 Bft) NE 34 4,0 C 11,5 C 45,1 km/h (6 Bft)
29.03.2017 13:05 17,3 C 40 % 1021,1 hPa 0,0 l/m 31,0 km/h (5 Bft) NE 43 3,6 C 10,8 C 48,3 km/h (6 Bft)
29.03.2017 13:00 17,2 C 42 % 1020,9 hPa 0,0 l/m 32,8 km/h (5 Bft) NE 48 4,2 C 10,4 C 53,1 km/h (7 Bft)
29.03.2017 12:55 17,2 C 41 % 1021,1 hPa 0,0 l/m 33,3 km/h (5 Bft) NE 37 3,8 C 10,3 C 49,9 km/h (6 Bft)
29.03.2017 12:50 17,2 C 42 % 1021,2 hPa 0,0 l/m 31,6 km/h (5 Bft) NE 34 4,2 C 10,6 C 49,9 km/h (6 Bft)
29.03.2017 12:45 17,3 C 42 % 1021,2 hPa 0,0 l/m 27,5 km/h (4 Bft) NE 54 4,3 C 11,3 C 45,1 km/h (6 Bft)
29.03.2017 12:40 17,1 C 42 % 1021,2 hPa 0,0 l/m 35,4 km/h (5 Bft) N-NW 347 4,1 C 9,9 C 54,7 km/h (7 Bft)
29.03.2017 12:35 17,1 C 42 % 1021,3 hPa 0,0 l/m 31,8 km/h (5 Bft) N-NE 18 4,1 C 10,4 C 54,7 km/h (7 Bft)
29.03.2017 12:30 17,1 C 43 % 1021,4 hPa 0,0 l/m 32,6 km/h (5 Bft) E-NE 60 4,4 C 10,3 C 49,9 km/h (6 Bft)
29.03.2017 12:25 17,1 C 44 % 1021,5 hPa 0,0 l/m 32,1 km/h (5 Bft) NE 45 4,8 C 10,3 C 56,3 km/h (7 Bft)
29.03.2017 12:20 16,9 C 44 % 1021,4 hPa 0,0 l/m 33,2 km/h (5 Bft) N 356 4,6 C 9,9 C 45,1 km/h (6 Bft)
29.03.2017 12:15 17,1 C 44 % 1021,6 hPa 0,0 l/m 29,2 km/h (5 Bft) N-NE 27 4,8 C 10,8 C 45,1 km/h (6 Bft)
29.03.2017 12:10 16,9 C 44 % 1021,4 hPa 0,0 l/m 34,0 km/h (5 Bft) N-NE 27 4,6 C 9,8 C 48,3 km/h (6 Bft)
29.03.2017 12:05 16,9 C 44 % 1021,4 hPa 0,0 l/m 28,1 km/h (4 Bft) NE 36 4,6 C 10,7 C 46,7 km/h (6 Bft)
29.03.2017 12:00 16,9 C 45 % 1021,6 hPa 0,0 l/m 29,8 km/h (5 Bft) N-NE 28 4,9 C 10,4 C 56,3 km/h (7 Bft)
29.03.2017 11:55 16,9 C 45 % 1021,5 hPa 0,0 l/m 29,5 km/h (5 Bft) NE 47 4,9 C 10,4 C 41,8 km/h (6 Bft)
29.03.2017 11:50 16,9 C 45 % 1021,4 hPa 0,0 l/m 30,6 km/h (5 Bft) NE 42 4,9 C 10,3 C 46,7 km/h (6 Bft)
29.03.2017 11:45 16,8 C 44 % 1021,4 hPa 0,0 l/m 31,0 km/h (5 Bft) NE 52 4,5 C 10,1 C 46,7 km/h (6 Bft)
29.03.2017 11:40 16,8 C 44 % 1021,5 hPa 0,0 l/m 34,7 km/h (5 Bft) N-NE 33 4,5 C 9,6 C 49,9 km/h (6 Bft)
29.03.2017 11:35 16,7 C 45 % 1021,2 hPa 0,0 l/m 33,5 km/h (5 Bft) N-NE 22 4,7 C 9,6 C 53,1 km/h (7 Bft)
29.03.2017 11:30 17,0 C 46 % 1021,5 hPa 0,0 l/m 30,4 km/h (5 Bft) N-NE 28 5,3 C 10,4 C 48,3 km/h (6 Bft)
29.03.2017 11:25 16,7 C 45 % 1021,3 hPa 0,0 l/m 29,6 km/h (5 Bft) N-NE 31 4,7 C 10,1 C 43,5 km/h (6 Bft)
29.03.2017 11:20 16,7 C 45 % 1021,4 hPa 0,0 l/m 32,2 km/h (5 Bft) NE 45 4,7 C 9,8 C 48,3 km/h (6 Bft)
29.03.2017 11:15 16,7 C 45 % 1021,4 hPa 0,0 l/m 31,7 km/h (5 Bft) NE 52 4,7 C 9,8 C 49,9 km/h (6 Bft)
29.03.2017 11:10 16,7 C 46 % 1021,5 hPa 0,0 l/m 31,4 km/h (5 Bft) NE 41 5,0 C 9,9 C 48,3 km/h (6 Bft)
29.03.2017 11:05 16,7 C 47 % 1021,5 hPa 0,0 l/m 26,8 km/h (4 Bft) N-NE 16 5,3 C 10,6 C 41,8 km/h (6 Bft)
29.03.2017 11:00 16,4 C 47 % 1021,4 hPa 0,0 l/m 27,8 km/h (4 Bft) NE 39 5,1 C 10,0 C 41,8 km/h (6 Bft)
29.03.2017 10:55 16,4 C 47 % 1021,5 hPa 0,0 l/m 29,6 km/h (5 Bft) N-NE 30 5,1 C 9,7 C 41,8 km/h (6 Bft)
29.03.2017 10:50 16,2 C 47 % 1021,3 hPa 0,0 l/m 32,6 km/h (5 Bft) N-NE 29 4,9 C 9,0 C 48,3 km/h (6 Bft)
29.03.2017 10:45 16,2 C 47 % 1021,4 hPa 0,0 l/m 29,1 km/h (5 Bft) N 2 4,9 C 9,5 C 43,5 km/h (6 Bft)
29.03.2017 10:40 16,1 C 47 % 1021,2 hPa 0,0 l/m 29,3 km/h (5 Bft) E-NE 66 4,8 C 9,3 C 46,7 km/h (6 Bft)
29.03.2017 10:35 15,8 C 49 % 1021,3 hPa 0,0 l/m 32,1 km/h (5 Bft) N-NE 33 5,1 C 8,5 C 45,1 km/h (6 Bft)
29.03.2017 10:30 15,8 C 49 % 1021,4 hPa 0,0 l/m 31,3 km/h (5 Bft) N-NE 26 5,1 C 8,6 C 49,9 km/h (6 Bft)
29.03.2017 10:25 15,7 C 49 % 1021,3 hPa 0,0 l/m 33,0 km/h (5 Bft) N-NE 32 5,0 C 8,2 C 53,1 km/h (7 Bft)
29.03.2017 10:20 15,7 C 49 % 1021,2 hPa 0,0 l/m 28,5 km/h (4 Bft) N 3 5,0 C 8,9 C 46,7 km/h (6 Bft)
29.03.2017 10:15 15,5 C 51 % 1021,2 hPa 0,0 l/m 28,3 km/h (4 Bft) NE 40 5,4 C 8,7 C 43,5 km/h (6 Bft)
29.03.2017 10:10 15,2 C 51 % 1021,2 hPa 0,0 l/m 34,5 km/h (5 Bft) N-NE 31 5,1 C 7,3 C 46,7 km/h (6 Bft)
29.03.2017 10:05 15,4 C 50 % 1020,9 hPa 0,0 l/m 28,3 km/h (4 Bft) N-NE 18 5,0 C 8,5 C 48,3 km/h (6 Bft)
29.03.2017 10:00 15,6 C 49 % 1021,2 hPa 0,0 l/m 27,2 km/h (4 Bft) NE 46 4,9 C 9,0 C 45,1 km/h (6 Bft)
29.03.2017 09:55 15,3 C 51 % 1021,0 hPa 0,0 l/m 29,7 km/h (5 Bft) N-NE 32 5,2 C 8,2 C 41,8 km/h (6 Bft)
29.03.2017 09:50 15,2 C 52 % 1021,0 hPa 0,0 l/m 29,2 km/h (5 Bft) NE 55 5,4 C 8,1 C 41,8 km/h (6 Bft)
29.03.2017 09:45 15,3 C 50 % 1021,1 hPa 0,0 l/m 32,1 km/h (5 Bft) NE 38 4,9 C 7,8 C 48,3 km/h (6 Bft)
29.03.2017 09:40 15,3 C 50 % 1020,9 hPa 0,0 l/m 28,9 km/h (5 Bft) NE 47 4,9 C 8,3 C 46,7 km/h (6 Bft)
29.03.2017 09:35 15,3 C 50 % 1020,9 hPa 0,0 l/m 26,9 km/h (4 Bft) N-NE 14 4,9 C 8,6 C 40,2 km/h (6 Bft)
29.03.2017 09:30 15,3 C 50 % 1020,8 hPa 0,0 l/m 28,8 km/h (4 Bft) NE 41 4,9 C 8,3 C 51,5 km/h (7 Bft)
29.03.2017 09:25 15,2 C 51 % 1021,0 hPa 0,0 l/m 28,0 km/h (4 Bft) NE 56 5,1 C 8,3 C 43,5 km/h (6 Bft)
29.03.2017 09:20 15,1 C 51 % 1021,1 hPa 0,0 l/m 30,2 km/h (5 Bft) NE 37 5,0 C 7,8 C 43,5 km/h (6 Bft)
29.03.2017 09:15 15,0 C 51 % 1020,9 hPa 0,0 l/m 29,9 km/h (5 Bft) N-NE 25 4,9 C 7,7 C 41,8 km/h (6 Bft)
29.03.2017 09:10 15,0 C 51 % 1020,8 hPa 0,0 l/m 29,9 km/h (5 Bft) E 80 4,9 C 7,7 C 38,6 km/h (5 Bft)
29.03.2017 09:05 15,1 C 50 % 1020,8 hPa 0,0 l/m 29,9 km/h (5 Bft) N 8 4,8 C 7,8 C 45,1 km/h (6 Bft)
29.03.2017 09:00 15,0 C 50 % 1020,9 hPa 0,0 l/m 29,7 km/h (5 Bft) NE 38 4,7 C 7,7 C 40,2 km/h (6 Bft)
29.03.2017 08:55 15,1 C 50 % 1020,9 hPa 0,0 l/m 26,3 km/h (4 Bft) N-NE 30 4,8 C 8,5 C 40,2 km/h (6 Bft)
29.03.2017 08:50 14,9 C 51 % 1020,9 hPa 0,0 l/m 26,7 km/h (4 Bft) NE 42 4,9 C 8,1 C 46,7 km/h (6 Bft)
29.03.2017 08:45 14,6 C 52 % 1020,7 hPa 0,0 l/m 29,2 km/h (5 Bft) N-NE 31 4,9 C 7,3 C 40,2 km/h (6 Bft)
29.03.2017 08:40 14,0 C 57 % 1020,8 hPa 0,0 l/m 24,8 km/h (4 Bft) NE 35 5,6 C 7,3 C 40,2 km/h (6 Bft)
29.03.2017 08:35 13,7 C 59 % 1020,7 hPa 0,0 l/m 27,8 km/h (4 Bft) N-NE 18 5,8 C 6,3 C 38,6 km/h (5 Bft)
29.03.2017 08:30 13,6 C 59 % 1020,7 hPa 0,0 l/m 28,3 km/h (4 Bft) NE 44 5,7 C 6,0 C 43,5 km/h (6 Bft)
29.03.2017 08:25 13,1 C 60 % 1020,7 hPa 0,0 l/m 25,1 km/h (4 Bft) NE 42 5,5 C 6,0 C 35,4 km/h (5 Bft)
29.03.2017 08:20 12,9 C 60 % 1020,7 hPa 0,0 l/m 28,0 km/h (4 Bft) N-NE 28 5,3 C 5,1 C 41,8 km/h (6 Bft)
29.03.2017 08:15 13,1 C 58 % 1020,7 hPa 0,0 l/m 28,0 km/h (4 Bft) N-NE 25 5,0 C 5,4 C 38,6 km/h (5 Bft)
29.03.2017 08:10 12,8 C 58 % 1020,7 hPa 0,0 l/m 27,2 km/h (4 Bft) NW 314 4,7 C 5,1 C 37,0 km/h (5 Bft)
29.03.2017 08:05 12,8 C 58 % 1020,6 hPa 0,0 l/m 26,9 km/h (4 Bft) N-NE 26 4,7 C 5,2 C 37,0 km/h (5 Bft)
29.03.2017 08:00 12,6 C 59 % 1020,8 hPa 0,0 l/m 25,7 km/h (4 Bft) N-NE 27 4,8 C 5,2 C 37,0 km/h (5 Bft)
29.03.2017 07:55 12,8 C 58 % 1020,7 hPa 0,0 l/m 26,4 km/h (4 Bft) N-NE 25 4,7 C 5,3 C 43,5 km/h (6 Bft)
29.03.2017 07:50 12,7 C 58 % 1020,6 hPa 0,0 l/m 27,5 km/h (4 Bft) N-NE 29 4,7 C 4,9 C 37,0 km/h (5 Bft)
29.03.2017 07:45 12,8 C 58 % 1020,6 hPa 0,0 l/m 25,3 km/h (4 Bft) N-NE 15 4,7 C 5,6 C 32,2 km/h (5 Bft)
29.03.2017 07:40 12,8 C 58 % 1020,6 hPa 0,0 l/m 23,8 km/h (4 Bft) N-NW 347 4,7 C 5,9 C 38,6 km/h (5 Bft)
29.03.2017 07:35 13,1 C 56 % 1020,7 hPa 0,0 l/m 24,1 km/h (4 Bft) N-NE 14 4,5 C 6,2 C 35,4 km/h (5 Bft)
29.03.2017 07:30 13,0 C 57 % 1020,7 hPa 0,0 l/m 21,3 km/h (4 Bft) N 10 4,7 C 6,8 C 30,6 km/h (5 Bft)
29.03.2017 07:25 12,9 C 57 % 1020,7 hPa 0,0 l/m 22,5 km/h (4 Bft) N-NE 23 4,6 C 6,4 C 32,2 km/h (5 Bft)
29.03.2017 07:20 12,7 C 57 % 1020,7 hPa 0,0 l/m 18,3 km/h (3 Bft) N-NE 19 4,4 C 7,3 C 25,7 km/h (4 Bft)
29.03.2017 07:15 12,8 C 57 % 1020,7 hPa 0,0 l/m 19,9 km/h (4 Bft) N 8 4,5 C 6,9 C 32,2 km/h (5 Bft)
29.03.2017 07:10 12,4 C 58 % 1020,6 hPa 0,0 l/m 23,5 km/h (4 Bft) NE 42 4,4 C 5,4 C 32,2 km/h (5 Bft)
29.03.2017 07:05 12,2 C 59 % 1020,6 hPa 0,0 l/m 20,3 km/h (4 Bft) N 6 4,4 C 6,0 C 29,0 km/h (5 Bft)
29.03.2017 07:00 12,3 C 59 % 1020,6 hPa 0,0 l/m 19,2 km/h (3 Bft) N-NE 33 4,5 C 6,5 C 30,6 km/h (5 Bft)
29.03.2017 06:55 12,2 C 60 % 1020,7 hPa 0,0 l/m 19,9 km/h (4 Bft) N-NE 29 4,7 C 6,2 C 32,2 km/h (5 Bft)
29.03.2017 06:50 12,1 C 61 % 1020,7 hPa 0,0 l/m 19,7 km/h (3 Bft) N 359 4,8 C 6,1 C 29,0 km/h (5 Bft)
29.03.2017 06:45 12,1 C 62 % 1020,8 hPa 0,0 l/m 19,7 km/h (3 Bft) NE 37 5,0 C 6,1 C 29,0 km/h (5 Bft)
29.03.2017 06:40 12,0 C 62 % 1020,8 hPa 0,0 l/m 18,4 km/h (3 Bft) N-NE 33 4,9 C 6,4 C 25,7 km/h (4 Bft)
29.03.2017 06:35 12,0 C 63 % 1020,8 hPa 0,0 l/m 17,7 km/h (3 Bft) N-NE 16 5,2 C 6,6 C 25,7 km/h (4 Bft)
29.03.2017 06:30 11,9 C 63 % 1020,8 hPa 0,0 l/m 17,0 km/h (3 Bft) N-NE 20 5,1 C 6,7 C 25,7 km/h (4 Bft)
29.03.2017 06:25 12,2 C 62 % 1020,9 hPa 0,0 l/m 17,2 km/h (3 Bft) NE 39 5,1 C 7,0 C 27,4 km/h (4 Bft)
29.03.2017 06:20 12,0 C 64 % 1020,9 hPa 0,0 l/m 16,3 km/h (3 Bft) N-NE 21 5,4 C 7,1 C 22,5 km/h (4 Bft)
29.03.2017 06:15 11,9 C 63 % 1020,9 hPa 0,0 l/m 16,4 km/h (3 Bft) N-NE 30 5,1 C 6,9 C 25,7 km/h (4 Bft)
29.03.2017 06:10 11,9 C 63 % 1020,9 hPa 0,0 l/m 16,6 km/h (3 Bft) N 352 5,1 C 6,8 C 30,6 km/h (5 Bft)
29.03.2017 06:05 11,7 C 65 % 1020,9 hPa 0,0 l/m 16,9 km/h (3 Bft) NE 35 5,3 C 6,5 C 25,7 km/h (4 Bft)
29.03.2017 06:00 11,5 C 66 % 1021,0 hPa 0,0 l/m 15,2 km/h (3 Bft) N-NW 345 5,4 C 6,9 C 25,7 km/h (4 Bft)
29.03.2017 05:55 11,6 C 66 % 1021,0 hPa 0,0 l/m 15,1 km/h (3 Bft) N 356 5,5 C 7,0 C 20,9 km/h (4 Bft)
29.03.2017 05:50 11,2 C 69 % 1021,0 hPa 0,0 l/m 13,7 km/h (3 Bft) N-NE 20 5,7 C 7,1 C 20,9 km/h (4 Bft)
29.03.2017 05:45 11,0 C 70 % 1021,1 hPa 0,0 l/m 11,9 km/h (2 Bft) NE 46 5,7 C 7,7 C 17,7 km/h (3 Bft)
29.03.2017 05:40 11,1 C 70 % 1021,2 hPa 0,0 l/m 10,8 km/h (2 Bft) N-NE 20 5,8 C 8,4 C 14,5 km/h (3 Bft)
29.03.2017 05:35 11,2 C 69 % 1021,2 hPa 0,0 l/m 11,8 km/h (2 Bft) N-NW 335 5,7 C 8,0 C 17,7 km/h (3 Bft)
29.03.2017 05:30 11,1 C 70 % 1021,3 hPa 0,0 l/m 11,4 km/h (2 Bft) N-NE 29 5,8 C 8,1 C 20,9 km/h (4 Bft)
29.03.2017 05:25 10,9 C 73 % 1021,3 hPa 0,0 l/m 8,9 km/h (2 Bft) N-NW 345 6,3 C 9,2 C 14,5 km/h (3 Bft)
29.03.2017 05:20 10,9 C 73 % 1021,3 hPa 0,0 l/m 10,0 km/h (2 Bft) N 4 6,3 C 8,6 C 16,1 km/h (3 Bft)
29.03.2017 05:15 10,9 C 75 % 1021,3 hPa 0,0 l/m 10,4 km/h (2 Bft) N-NE 16 6,6 C 8,4 C 17,7 km/h (3 Bft)
29.03.2017 05:10 10,7 C 76 % 1021,4 hPa 0,0 l/m 8,2 km/h (2 Bft) N-NE 30 6,6 C 9,5 C 16,1 km/h (3 Bft)
29.03.2017 05:05 11,1 C 76 % 1021,4 hPa 0,0 l/m 11,8 km/h (2 Bft) NE 46 7,0 C 7,9 C 17,7 km/h (3 Bft)
29.03.2017 05:00 11,1 C 77 % 1021,4 hPa 0,0 l/m 12,7 km/h (3 Bft) N-NE 23 7,2 C 7,5 C 19,3 km/h (3 Bft)
29.03.2017 04:55 11,2 C 77 % 1021,4 hPa 0,0 l/m 15,4 km/h (3 Bft) NE 45 7,3 C 6,4 C 24,1 km/h (4 Bft)
29.03.2017 04:50 11,1 C 80 % 1021,3 hPa 0,0 l/m 18,5 km/h (3 Bft) N-NE 27 7,8 C 5,2 C 25,7 km/h (4 Bft)
29.03.2017 04:45 11,2 C 79 % 1021,3 hPa 0,0 l/m 17,1 km/h (3 Bft) N-NE 14 7,7 C 5,8 C 25,7 km/h (4 Bft)
29.03.2017 04:40 11,2 C 80 % 1021,3 hPa 0,0 l/m 16,2 km/h (3 Bft) N-NE 25 7,9 C 6,1 C 25,7 km/h (4 Bft)
29.03.2017 04:35 11,3 C 77 % 1021,4 hPa 0,0 l/m 16,5 km/h (3 Bft) NE 38 7,4 C 6,1 C 24,1 km/h (4 Bft)
29.03.2017 04:30 11,4 C 71 % 1021,4 hPa 0,0 l/m 16,2 km/h (3 Bft) N 7 6,3 C 6,4 C 22,5 km/h (4 Bft)
29.03.2017 04:25 11,3 C 66 % 1021,3 hPa 0,0 l/m 13,7 km/h (3 Bft) NE 39 5,2 C 7,2 C 22,5 km/h (4 Bft)
29.03.2017 04:20 11,2 C 67 % 1021,3 hPa 0,0 l/m 12,2 km/h (2 Bft) NE 46 5,3 C 7,8 C 20,9 km/h (4 Bft)
29.03.2017 04:15 11,2 C 67 % 1021,3 hPa 0,0 l/m 11,6 km/h (2 Bft) N-NE 15 5,3 C 8,1 C 16,1 km/h (3 Bft)
29.03.2017 04:10 10,8 C 70 % 1021,4 hPa 0,0 l/m 9,7 km/h (2 Bft) N-NE 20 5,6 C 8,6 C 16,1 km/h (3 Bft)
29.03.2017 04:05 10,3 C 71 % 1021,4 hPa 0,0 l/m 3,8 km/h (1 Bft) N-NE 23 5,3 C 10,3 C 9,7 km/h (2 Bft)
29.03.2017 04:00 10,4 C 72 % 1021,4 hPa 0,0 l/m 1,3 km/h (1 Bft) E-NE 72 5,6 C 10,4 C 4,8 km/h (1 Bft)
29.03.2017 03:55 10,6 C 71 % 1021,4 hPa 0,0 l/m 0,7 km/h (0 Bft) NE 34 5,6 C 10,6 C 3,2 km/h (1 Bft)
29.03.2017 03:50 10,4 C 75 % 1021,4 hPa 0,0 l/m 0,0 km/h (0 Bft) NE 34 6,2 C 10,4 C 1,6 km/h (1 Bft)
29.03.2017 03:45 10,5 C 75 % 1021,4 hPa 0,0 l/m 2,0 km/h (1 Bft) NE 34 6,3 C 10,5 C 6,4 km/h (2 Bft)
29.03.2017 03:40 11,1 C 73 % 1021,4 hPa 0,0 l/m 4,2 km/h (1 Bft) S 169 6,4 C 11,1 C 8,0 km/h (2 Bft)
29.03.2017 03:35 10,9 C 74 % 1021,4 hPa 0,0 l/m 1,5 km/h (1 Bft) E 82 6,5 C 10,9 C 3,2 km/h (1 Bft)
29.03.2017 03:30 10,6 C 75 % 1021,5 hPa 0,0 l/m 1,6 km/h (1 Bft) E-NE 65 6,4 C 10,6 C 4,8 km/h (1 Bft)
29.03.2017 03:25 10,3 C 75 % 1021,5 hPa 0,0 l/m 2,6 km/h (1 Bft) N-NE 32 6,1 C 10,3 C 6,4 km/h (2 Bft)
29.03.2017 03:20 10,2 C 75 % 1021,5 hPa 0,0 l/m 6,5 km/h (2 Bft) E 97 6,0 C 10,2 C 9,7 km/h (2 Bft)
29.03.2017 03:15 10,2 C 74 % 1021,5 hPa 0,0 l/m 5,7 km/h (1 Bft) E-NE 71 5,8 C 10,2 C 8,0 km/h (2 Bft)
29.03.2017 03:10 10,2 C 75 % 1021,4 hPa 0,0 l/m 2,7 km/h (1 Bft) NE 49 6,0 C 10,2 C 6,4 km/h (2 Bft)
29.03.2017 03:05 9,9 C 77 % 1021,4 hPa 0,0 l/m 4,1 km/h (1 Bft) E-SE 113 6,1 C 9,9 C 9,7 km/h (2 Bft)
29.03.2017 03:00 9,8 C 78 % 1021,5 hPa 0,0 l/m 2,8 km/h (1 Bft) E-NE 63 6,1 C 9,8 C 8,0 km/h (2 Bft)
29.03.2017 02:55 9,9 C 77 % 1021,4 hPa 0,0 l/m 4,2 km/h (1 Bft) E-NE 77 6,1 C 9,9 C 9,7 km/h (2 Bft)
29.03.2017 02:50 10,6 C 76 % 1021,4 hPa 0,0 l/m 0,3 km/h (0 Bft) E 80 6,5 C 10,6 C 3,2 km/h (1 Bft)
29.03.2017 02:45 10,8 C 76 % 1021,5 hPa 0,0 l/m 1,1 km/h (1 Bft) NE 46 6,7 C 10,8 C 6,4 km/h (2 Bft)
29.03.2017 02:40 10,7 C 77 % 1021,5 hPa 0,0 l/m 3,9 km/h (1 Bft) NE 49 6,8 C 10,7 C 8,0 km/h (2 Bft)
29.03.2017 02:35 11,0 C 76 % 1021,5 hPa 0,0 l/m 2,1 km/h (1 Bft) E 81 6,9 C 11,0 C 6,4 km/h (2 Bft)
29.03.2017 02:30 11,1 C 76 % 1021,5 hPa 0,0 l/m 8,2 km/h (2 Bft) E-NE 65 7,0 C 9,9 C 12,9 km/h (3 Bft)
29.03.2017 02:25 11,0 C 78 % 1021,5 hPa 0,0 l/m 6,9 km/h (2 Bft) NE 44 7,3 C 10,7 C 11,3 km/h (2 Bft)
29.03.2017 02:20 10,9 C 82 % 1021,5 hPa 0,0 l/m 8,9 km/h (2 Bft) NE 41 7,9 C 9,2 C 14,5 km/h (3 Bft)
29.03.2017 02:15 10,9 C 84 % 1021,6 hPa 0,0 l/m 8,8 km/h (2 Bft) NE 44 8,3 C 9,3 C 17,7 km/h (3 Bft)
29.03.2017 02:10 10,8 C 83 % 1021,5 hPa 0,0 l/m 5,7 km/h (1 Bft) N-NE 33 8,0 C 10,8 C 9,7 km/h (2 Bft)
29.03.2017 02:05 10,8 C 83 % 1021,6 hPa 0,0 l/m 8,4 km/h (2 Bft) N-NE 32 8,0 C 9,4 C 14,5 km/h (3 Bft)
29.03.2017 02:00 10,8 C 83 % 1021,6 hPa 0,0 l/m 10,3 km/h (2 Bft) N-NE 31 8,0 C 8,3 C 16,1 km/h (3 Bft)
29.03.2017 01:55 10,9 C 84 % 1021,6 hPa 0,0 l/m 7,6 km/h (2 Bft) N 6 8,3 C 10,1 C 17,7 km/h (3 Bft)
29.03.2017 01:50 11,1 C 84 % 1021,6 hPa 0,0 l/m 2,6 km/h (1 Bft) N-NW 346 8,5 C 11,1 C 6,4 km/h (2 Bft)
29.03.2017 01:45 11,1 C 83 % 1021,7 hPa 0,0 l/m 1,8 km/h (1 Bft) E 84 8,3 C 11,1 C 6,4 km/h (2 Bft)
29.03.2017 01:40 11,2 C 82 % 1021,7 hPa 0,0 l/m 2,0 km/h (1 Bft) E-NE 72 8,2 C 11,2 C 8,0 km/h (2 Bft)
29.03.2017 01:35 11,1 C 83 % 1021,7 hPa 0,0 l/m 5,9 km/h (2 Bft) N-NE 13 8,3 C 11,1 C 12,9 km/h (3 Bft)
29.03.2017 01:30 10,8 C 83 % 1021,6 hPa 0,0 l/m 9,3 km/h (2 Bft) N-NW 340 8,0 C 8,9 C 17,7 km/h (3 Bft)
29.03.2017 01:25 10,7 C 82 % 1021,6 hPa 0,0 l/m 6,8 km/h (2 Bft) N-NE 25 7,8 C 10,4 C 9,7 km/h (2 Bft)
29.03.2017 01:20 10,6 C 82 % 1021,7 hPa 0,0 l/m 5,8 km/h (2 Bft) N-NE 24 7,7 C 10,6 C 8,0 km/h (2 Bft)
29.03.2017 01:15 10,4 C 81 % 1021,7 hPa 0,0 l/m 5,3 km/h (1 Bft) NE 38 7,3 C 10,4 C 8,0 km/h (2 Bft)
29.03.2017 01:10 10,5 C 79 % 1021,6 hPa 0,0 l/m 5,5 km/h (1 Bft) NE 34 7,0 C 10,5 C 8,0 km/h (2 Bft)
29.03.2017 01:05 10,7 C 79 % 1021,6 hPa 0,0 l/m 6,8 km/h (2 Bft) N-NE 25 7,2 C 10,4 C 9,7 km/h (2 Bft)
29.03.2017 01:00 10,6 C 78 % 1021,7 hPa 0,0 l/m 6,2 km/h (2 Bft) N-NE 25 6,9 C 10,6 C 9,7 km/h (2 Bft)
29.03.2017 00:55 10,4 C 78 % 1021,6 hPa 0,0 l/m 5,2 km/h (1 Bft) N-NE 33 6,7 C 10,4 C 6,4 km/h (2 Bft)
29.03.2017 00:50 10,4 C 79 % 1021,7 hPa 0,0 l/m 5,7 km/h (1 Bft) N-NE 22 6,9 C 10,4 C 8,0 km/h (2 Bft)
29.03.2017 00:45 10,3 C 80 % 1021,8 hPa 0,0 l/m 3,9 km/h (1 Bft) N-NE 33 7,0 C 10,3 C 6,4 km/h (2 Bft)
29.03.2017 00:40 10,3 C 80 % 1021,8 hPa 0,0 l/m 3,6 km/h (1 Bft) N-NE 14 7,0 C 10,3 C 4,8 km/h (1 Bft)
29.03.2017 00:35 10,2 C 79 % 1021,7 hPa 0,0 l/m 2,7 km/h (1 Bft) N-NE 13 6,7 C 10,2 C 4,8 km/h (1 Bft)
29.03.2017 00:30 10,2 C 79 % 1021,7 hPa 0,0 l/m 2,1 km/h (1 Bft) N-NE 20 6,7 C 10,2 C 3,2 km/h (1 Bft)
29.03.2017 00:25 10,3 C 80 % 1021,7 hPa 0,0 l/m 4,5 km/h (1 Bft) N-NE 19 7,0 C 10,3 C 6,4 km/h (2 Bft)
29.03.2017 00:20 10,6 C 80 % 1021,7 hPa 0,0 l/m 3,5 km/h (1 Bft) N 11 7,3 C 10,6 C 6,4 km/h (2 Bft)
29.03.2017 00:15 10,7 C 81 % 1021,7 hPa 0,0 l/m 4,3 km/h (1 Bft) N 11 7,6 C 10,7 C 6,4 km/h (2 Bft)
29.03.2017 00:10 10,8 C 81 % 1021,7 hPa 0,0 l/m 3,5 km/h (1 Bft) N 360 7,7 C 10,8 C 4,8 km/h (1 Bft)
29.03.2017 00:05 10,9 C 82 % 1021,7 hPa 0,0 l/m 3,3 km/h (1 Bft) N 11 7,9 C 10,9 C 6,4 km/h (2 Bft)
29.03.2017 00:00 10,9 C 82 % 1021,7 hPa 0,0 l/m 2,8 km/h (1 Bft) N-NE 19 7,9 C 10,9 C 4,8 km/h (1 Bft)
_ Min-Time 03:05 17:00 17:20 - 03:50 - - 17:00 07:50 03:50
Minimum _ 9,7 C 28 % 1018,5 hPa - 0,0 km/h (0 Bft) - - 1,4 C 4,9 C 1,6 km/h (1 Bft)
_ Max-Time 16:55 01:50 00:40 00:00 12:40 - - 01:50 17:15 12:00
Maximum _ 20,6 C 84 % 1021,8 hPa 0,0 l/m 35,4 km/h
N-NW (5 Bft)
- - 8,5 C 17,8 C 56,3 km/h
E-NE (7 Bft)
Average _ 14,5 C 57 % 1020,8 hPa #0,0 l/m 20,2 km/h (4 Bft) N-NE - 5,4 C 10,0 C 31,8 km/h (5 Bft)